Time;durP1;ratioP1;P1;durP2;ratioP2;P2;SDS_P1;SDS_P2;PMS_P1;PMS_P2;Temp;Humidity;BMP_temperature;BMP_pressure;BME280_temperature;BME280_humidity;BME280_pressure;Samples;Min_cycle;Max_cycle;Signal;HPM_P1;HPM_P2
2023/07/11 00:00:20;;;;;;;12.45;2.80;;;;;;;;;;5048660;28;20053;-74
2023/07/11 00:02:47;;;;;;;7.95;3.10;;;;;;;;;;5064250;28;20044;-74
2023/07/11 00:05:14;;;;;;;7.57;3.10;;;;;;;;;;5065169;28;20041;-75
2023/07/11 00:07:40;;;;;;;6.90;2.60;;;;;;;;;;5065392;28;20426;-75
2023/07/11 00:10:07;;;;;;;8.90;2.78;;;;;;;;;;5064500;28;20041;-74
2023/07/11 00:12:33;;;;;;;6.78;2.50;;;;;;;;;;5064842;28;20052;-74
2023/07/11 00:14:59;;;;;;;6.10;2.40;;;;;;;;;;5064919;28;20045;-74
2023/07/11 00:17:26;;;;;;;7.45;2.45;;;;;;;;;;5047779;28;20049;-74
2023/07/11 00:19:53;;;;;;;8.23;2.60;;;;;;;;;;5053358;28;20045;-75
2023/07/11 00:22:20;;;;;;;8.25;2.40;;;;;;;;;;5039483;28;20515;-73
2023/07/11 00:24:46;;;;;;;7.05;2.28;;;;;;;;;;5064880;28;20048;-75
2023/07/11 00:27:13;;;;;;;7.07;2.47;;;;;;;;;;5063568;28;20044;-76
2023/07/11 00:29:39;;;;;;;7.50;2.22;;;;;;;;;;5063430;28;20044;-74
2023/07/11 00:32:06;;;;;;;7.15;2.30;;;;;;;;;;5061429;28;20044;-75
2023/07/11 00:34:32;;;;;;;8.60;2.40;;;;;;;;;;5054137;28;20042;-75
2023/07/11 00:36:58;;;;;;;7.07;2.30;;;;;;;;;;5046212;28;20124;-75
2023/07/11 00:39:26;;;;;;;6.55;2.20;;;;;;;;;;5055164;28;20045;-75
2023/07/11 00:41:53;;;;;;;7.80;1.88;;;;;;;;;;5056811;28;20087;-75
2023/07/11 00:44:19;;;;;;;10.10;2.38;;;;;;;;;;5049049;28;20037;-74
2023/07/11 00:46:45;;;;;;;8.25;2.10;;;;;;;;;;5063763;28;20041;-74
2023/07/11 00:49:12;;;;;;;8.82;2.20;;;;;;;;;;5062020;28;20128;-75
2023/07/11 00:51:40;;;;;;;9.60;2.45;;;;;;;;;;5023057;28;20033;-74
2023/07/11 00:54:08;;;;;;;6.40;1.80;;;;;;;;;;5059855;28;20072;-74
2023/07/11 00:56:37;;;;;;;9.15;1.95;;;;;;;;;;5050962;28;20055;-74
2023/07/11 00:59:04;;;;;;;7.68;2.15;;;;;;;;;;5064460;28;20049;-75
2023/07/11 01:01:30;;;;;;;7.85;2.45;;;;;;;;;;5062721;28;20072;-75
2023/07/11 01:03:57;;;;;;;8.43;2.20;;;;;;;;;;5064356;28;20116;-75
2023/07/11 01:06:27;;;;;;;7.22;2.33;;;;;;;;;;5062844;28;20041;-74
2023/07/11 01:08:57;;;;;;;9.80;2.50;;;;;;;;;;5063210;28;20045;-75
2023/07/11 01:11:24;;;;;;;8.35;2.25;;;;;;;;;;5058689;28;20076;-75
2023/07/11 01:13:51;;;;;;;8.77;2.63;;;;;;;;;;5063302;28;20048;-76
2023/07/11 01:16:17;;;;;;;9.35;3.05;;;;;;;;;;5063895;28;20049;-75
2023/07/11 01:18:44;;;;;;;10.38;2.85;;;;;;;;;;5064125;28;20080;-74
2023/07/11 01:21:18;;;;;;;12.07;3.20;;;;;;;;;;5064041;28;20041;-75
2023/07/11 01:23:44;;;;;;;9.52;3.13;;;;;;;;;;5063110;28;20047;-75
2023/07/11 01:26:11;;;;;;;8.88;2.70;;;;;;;;;;5010136;28;20049;-74
2023/07/11 01:28:38;;;;;;;13.18;3.13;;;;;;;;;;5061814;28;20041;-74
2023/07/11 01:31:05;;;;;;;8.20;3.17;;;;;;;;;;5062862;28;20076;-74
2023/07/11 01:33:31;;;;;;;10.45;3.35;;;;;;;;;;5059359;28;20033;-75
2023/07/11 01:35:57;;;;;;;8.30;2.90;;;;;;;;;;5059087;28;20092;-75
2023/07/11 01:38:24;;;;;;;11.30;3.33;;;;;;;;;;5053980;28;20041;-74
2023/07/11 01:40:51;;;;;;;11.43;3.53;;;;;;;;;;5051724;28;20155;-75
2023/07/11 01:43:18;;;;;;;13.63;3.13;;;;;;;;;;5060722;28;20037;-75
2023/07/11 01:45:44;;;;;;;9.93;3.35;;;;;;;;;;5047920;28;20045;-75
2023/07/11 01:48:10;;;;;;;8.80;2.90;;;;;;;;;;5059380;28;20049;-74
2023/07/11 01:50:36;;;;;;;9.18;3.00;;;;;;;;;;5062663;28;20037;-76
2023/07/11 01:53:02;;;;;;;8.85;3.10;;;;;;;;;;5056444;28;20128;-75
2023/07/11 01:55:28;;;;;;;9.55;2.72;;;;;;;;;;5059695;28;20045;-74
2023/07/11 01:57:54;;;;;;;7.90;3.20;;;;;;;;;;5056894;28;20077;-75
2023/07/11 02:00:20;;;;;;;6.95;3.13;;;;;;;;;;5041328;28;20051;-76
2023/07/11 02:02:47;;;;;;;6.25;2.92;;;;;;;;;;5047249;28;20121;-75
2023/07/11 02:05:16;;;;;;;7.40;3.00;;;;;;;;;;5062074;28;20049;-75
2023/07/11 02:07:42;;;;;;;9.48;3.08;;;;;;;;;;5061945;28;20041;-75
2023/07/11 02:10:09;;;;;;;10.98;3.22;;;;;;;;;;5063963;28;20053;-73
2023/07/11 02:12:35;;;;;;;6.35;2.90;;;;;;;;;;5063725;28;20040;-74
2023/07/11 02:15:01;;;;;;;6.43;2.95;;;;;;;;;;5047212;28;20441;-75
2023/07/11 02:17:27;;;;;;;8.98;2.95;;;;;;;;;;5046911;28;20075;-73
2023/07/11 02:19:54;;;;;;;9.18;2.92;;;;;;;;;;5064208;28;20406;-74
2023/07/11 02:22:20;;;;;;;10.82;3.35;;;;;;;;;;5044406;28;20041;-73
2023/07/11 02:24:46;;;;;;;16.67;3.13;;;;;;;;;;5063002;28;20045;-74
2023/07/11 02:27:12;;;;;;;10.40;3.00;;;;;;;;;;5046565;28;20142;-75
2023/07/11 02:29:38;;;;;;;10.25;3.40;;;;;;;;;;5048001;28;20041;-74
2023/07/11 02:32:04;;;;;;;9.05;3.05;;;;;;;;;;5049513;28;20132;-74
2023/07/11 02:34:30;;;;;;;8.52;3.13;;;;;;;;;;5065778;28;20047;-74
2023/07/11 02:36:57;;;;;;;6.15;3.05;;;;;;;;;;5063402;28;20394;-73
2023/07/11 02:39:23;;;;;;;10.50;2.95;;;;;;;;;;5056649;28;20046;-75
2023/07/11 02:41:49;;;;;;;8.60;3.45;;;;;;;;;;5058092;28;20049;-75
2023/07/11 02:44:15;;;;;;;8.45;2.80;;;;;;;;;;5057435;28;20496;-74
2023/07/11 02:46:41;;;;;;;11.65;2.90;;;;;;;;;;5063915;28;20037;-74
2023/07/11 02:49:08;;;;;;;8.30;3.10;;;;;;;;;;5059830;28;20049;-75
2023/07/11 02:51:39;;;;;;;9.82;2.92;;;;;;;;;;5058783;28;20033;-74
2023/07/11 02:54:05;;;;;;;11.05;3.50;;;;;;;;;;5064990;28;20045;-73
2023/07/11 02:56:32;;;;;;;13.38;3.25;;;;;;;;;;5038201;28;20048;-74
2023/07/11 02:59:01;;;;;;;10.30;2.92;;;;;;;;;;5054366;28;20073;-73
2023/07/11 03:01:33;;;;;;;9.32;3.20;;;;;;;;;;5046044;28;20048;-75
2023/07/11 03:03:59;;;;;;;8.82;3.40;;;;;;;;;;5048166;28;20052;-74
2023/07/11 03:06:25;;;;;;;9.90;3.35;;;;;;;;;;5056265;28;20045;-74
2023/07/11 03:08:51;;;;;;;12.52;3.30;;;;;;;;;;5058415;28;20055;-74
2023/07/11 03:11:17;;;;;;;9.98;3.42;;;;;;;;;;5063870;28;20087;-74
2023/07/11 03:13:43;;;;;;;10.98;3.30;;;;;;;;;;5051778;28;20048;-73
2023/07/11 03:16:10;;;;;;;16.92;4.05;;;;;;;;;;5045985;28;20041;-73
2023/07/11 03:18:36;;;;;;;14.25;3.45;;;;;;;;;;5063509;28;20063;-73
2023/07/11 03:21:03;;;;;;;12.20;3.90;;;;;;;;;;5040870;28;20041;-74
2023/07/11 03:23:29;;;;;;;9.10;3.35;;;;;;;;;;5051324;28;20065;-74
2023/07/11 03:25:56;;;;;;;10.50;3.58;;;;;;;;;;5049674;28;20061;-74
2023/07/11 03:28:22;;;;;;;9.32;3.60;;;;;;;;;;5060783;28;20432;-74
2023/07/11 03:30:48;;;;;;;12.55;4.00;;;;;;;;;;5041819;28;20514;-73
2023/07/11 03:33:15;;;;;;;9.32;3.40;;;;;;;;;;5062860;28;20044;-74
2023/07/11 03:35:41;;;;;;;10.10;3.50;;;;;;;;;;5039598;28;20101;-74
2023/07/11 03:38:07;;;;;;;9.00;3.47;;;;;;;;;;5058101;28;20104;-74
2023/07/11 03:40:33;;;;;;;8.88;3.53;;;;;;;;;;5060183;28;21068;-75
2023/07/11 03:42:59;;;;;;;12.02;3.88;;;;;;;;;;5051948;28;20049;-75
2023/07/11 03:45:26;;;;;;;8.68;4.10;;;;;;;;;;5053067;28;20488;-74
2023/07/11 03:47:52;;;;;;;12.82;4.28;;;;;;;;;;5039373;28;20053;-74
2023/07/11 03:50:18;;;;;;;8.93;4.10;;;;;;;;;;5047002;28;20041;-74
2023/07/11 03:52:44;;;;;;;10.63;4.28;;;;;;;;;;5045007;28;20088;-73
2023/07/11 03:55:10;;;;;;;10.57;4.03;;;;;;;;;;5062023;28;20049;-73
2023/07/11 03:57:36;;;;;;;9.90;4.05;;;;;;;;;;5046995;28;20052;-74
2023/07/11 04:00:03;;;;;;;8.98;4.22;;;;;;;;;;5062966;28;20442;-75
2023/07/11 04:02:29;;;;;;;11.95;4.10;;;;;;;;;;5060970;28;20041;-75
2023/07/11 04:04:55;;;;;;;10.10;4.07;;;;;;;;;;5055320;28;20072;-75
2023/07/11 04:07:21;;;;;;;9.95;4.15;;;;;;;;;;5066505;28;20053;-74
2023/07/11 04:09:47;;;;;;;11.77;4.00;;;;;;;;;;5064315;28;20084;-74
2023/07/11 04:12:13;;;;;;;10.52;4.00;;;;;;;;;;5066412;28;20049;-74
2023/07/11 04:14:40;;;;;;;8.35;4.13;;;;;;;;;;5066164;28;20049;-74
2023/07/11 04:17:06;;;;;;;9.25;3.75;;;;;;;;;;5061240;28;20057;-74
2023/07/11 04:19:32;;;;;;;8.95;3.67;;;;;;;;;;5063676;28;20104;-74
2023/07/11 04:21:58;;;;;;;10.35;4.05;;;;;;;;;;5042645;28;20083;-74
2023/07/11 04:24:24;;;;;;;12.05;4.00;;;;;;;;;;5058152;28;20053;-74
2023/07/11 04:26:50;;;;;;;9.27;4.40;;;;;;;;;;5045641;28;20105;-74
2023/07/11 04:29:16;;;;;;;7.78;3.78;;;;;;;;;;5044968;28;20059;-73
2023/07/11 04:31:42;;;;;;;11.23;3.83;;;;;;;;;;5064218;28;20068;-73
2023/07/11 04:34:08;;;;;;;9.23;4.25;;;;;;;;;;5040765;28;20060;-74
2023/07/11 04:36:35;;;;;;;9.43;3.72;;;;;;;;;;5052846;28;20052;-74
2023/07/11 04:39:02;;;;;;;10.50;4.43;;;;;;;;;;5063250;28;20071;-72
2023/07/11 04:41:29;;;;;;;11.13;3.70;;;;;;;;;;5063862;28;20124;-74
2023/07/11 04:43:55;;;;;;;10.00;3.90;;;;;;;;;;5041302;28;20123;-74
2023/07/11 04:46:21;;;;;;;7.88;3.40;;;;;;;;;;5055838;28;20044;-73
2023/07/11 04:48:47;;;;;;;10.43;3.70;;;;;;;;;;5058809;28;20049;-73
2023/07/11 04:51:13;;;;;;;11.70;3.75;;;;;;;;;;5058335;28;20084;-72
2023/07/11 04:53:40;;;;;;;11.50;4.18;;;;;;;;;;5049036;28;20045;-73
2023/07/11 04:56:07;;;;;;;9.70;3.70;;;;;;;;;;5055431;28;20051;-73
2023/07/11 04:58:34;;;;;;;10.23;3.72;;;;;;;;;;5047238;28;20048;-73
2023/07/11 05:01:18;;;;;;;12.65;3.97;;;;;;;;;;5038177;28;20049;-73
2023/07/11 05:03:45;;;;;;;10.38;4.20;;;;;;;;;;5056146;28;20055;-73
2023/07/11 05:06:14;;;;;;;7.57;3.72;;;;;;;;;;5056662;28;20049;-74
2023/07/11 05:08:41;;;;;;;9.35;3.95;;;;;;;;;;5055018;28;20087;-72
2023/07/11 05:11:11;;;;;;;10.15;4.18;;;;;;;;;;5035936;28;20132;-73
2023/07/11 05:13:37;;;;;;;11.85;4.70;;;;;;;;;;5056290;28;20049;-74
2023/07/11 05:16:04;;;;;;;11.13;4.20;;;;;;;;;;5030093;28;20659;-74
2023/07/11 05:18:31;;;;;;;10.85;4.05;;;;;;;;;;5055844;28;20478;-74
2023/07/11 05:20:58;;;;;;;11.48;4.47;;;;;;;;;;5055684;28;20080;-73
2023/07/11 05:23:25;;;;;;;7.80;3.75;;;;;;;;;;5049516;28;20533;-74
2023/07/11 05:25:51;;;;;;;12.57;4.40;;;;;;;;;;5055395;28;20503;-72
2023/07/11 05:28:17;;;;;;;11.00;4.55;;;;;;;;;;5050839;28;20479;-74
2023/07/11 05:30:43;;;;;;;11.93;4.47;;;;;;;;;;5054594;28;20091;-72
2023/07/11 05:33:09;;;;;;;8.02;4.28;;;;;;;;;;5054812;28;20080;-72
2023/07/11 05:35:37;;;;;;;8.43;3.63;;;;;;;;;;5051960;28;20037;-75
2023/07/11 05:38:04;;;;;;;11.18;4.38;;;;;;;;;;5053352;28;20363;-73
2023/07/11 05:40:33;;;;;;;10.07;3.78;;;;;;;;;;5044685;28;20076;-73
2023/07/11 05:42:59;;;;;;;8.75;3.90;;;;;;;;;;5056774;28;20075;-73
2023/07/11 05:45:25;;;;;;;9.88;3.90;;;;;;;;;;5053394;28;20049;-73
2023/07/11 05:47:51;;;;;;;9.57;3.55;;;;;;;;;;5052272;28;20045;-74
2023/07/11 05:50:17;;;;;;;10.18;3.58;;;;;;;;;;5049434;28;20034;-74
2023/07/11 05:52:43;;;;;;;10.00;3.40;;;;;;;;;;5034329;28;20047;-74
2023/07/11 05:55:09;;;;;;;6.45;3.08;;;;;;;;;;5037284;28;20068;-73
2023/07/11 05:57:35;;;;;;;8.32;3.10;;;;;;;;;;5034047;28;20048;-74
2023/07/11 06:00:03;;;;;;;9.25;3.17;;;;;;;;;;5053232;28;20048;-73
2023/07/11 06:02:29;;;;;;;9.32;3.17;;;;;;;;;;5048200;28;20041;-73
2023/07/11 06:04:55;;;;;;;9.63;3.40;;;;;;;;;;5044486;28;20044;-74
2023/07/11 06:07:22;;;;;;;9.00;3.20;;;;;;;;;;5054203;28;20623;-74
2023/07/11 06:09:48;;;;;;;9.70;3.40;;;;;;;;;;5038806;28;20049;-74
2023/07/11 06:12:15;;;;;;;8.02;2.85;;;;;;;;;;5050044;28;20136;-74
2023/07/11 06:14:41;;;;;;;9.15;3.22;;;;;;;;;;5056584;28;20041;-74
2023/07/11 06:17:07;;;;;;;7.63;3.22;;;;;;;;;;5048519;28;20037;-73
2023/07/11 06:19:33;;;;;;;6.72;2.70;;;;;;;;;;5020913;28;20506;-74
2023/07/11 06:21:59;;;;;;;7.10;2.75;;;;;;;;;;5055941;28;20470;-74
2023/07/11 06:24:25;;;;;;;8.88;2.78;;;;;;;;;;5038660;28;20105;-74
2023/07/11 06:26:51;;;;;;;8.55;2.70;;;;;;;;;;5056339;28;20100;-73
2023/07/11 06:29:17;;;;;;;8.23;2.45;;;;;;;;;;5055246;28;20098;-73
2023/07/11 06:31:45;;;;;;;8.32;2.97;;;;;;;;;;5056476;28;20041;-75
2023/07/11 06:34:11;;;;;;;8.43;2.80;;;;;;;;;;5054262;28;20045;-74
2023/07/11 06:36:37;;;;;;;8.93;3.00;;;;;;;;;;5044009;28;20037;-73
2023/07/11 06:39:03;;;;;;;6.95;2.65;;;;;;;;;;5055632;28;20033;-74
2023/07/11 06:41:29;;;;;;;11.02;2.83;;;;;;;;;;5052505;28;20431;-74
2023/07/11 06:43:56;;;;;;;7.22;2.95;;;;;;;;;;5056527;28;20052;-74
2023/07/11 06:46:22;;;;;;;8.27;2.70;;;;;;;;;;5054445;28;20040;-74
2023/07/11 06:48:48;;;;;;;8.02;3.15;;;;;;;;;;5056337;28;20037;-74
2023/07/11 06:51:14;;;;;;;6.30;2.50;;;;;;;;;;5056301;28;20446;-73
2023/07/11 06:53:41;;;;;;;9.95;2.90;;;;;;;;;;5054426;28;20514;-74
2023/07/11 06:56:07;;;;;;;9.05;2.70;;;;;;;;;;5056333;28;20039;-75
2023/07/11 06:58:33;;;;;;;7.38;2.90;;;;;;;;;;5057762;28;20053;-75
2023/07/11 07:01:04;;;;;;;7.90;3.35;;;;;;;;;;5057465;28;20073;-74
2023/07/11 07:03:31;;;;;;;;;;;;;;;;;;5056777;28;20049;-74
2023/07/11 07:05:58;;;;;;;7.82;3.13;;;;;;;;;;5053369;28;19920;-74
2023/07/11 07:08:25;;;;;;;8.90;2.92;;;;;;;;;;5051015;28;20142;-74
2023/07/11 07:10:51;;;;;;;9.02;3.10;;;;;;;;;;5048952;28;20176;-74
2023/07/11 07:13:19;;;;;;;8.48;3.20;;;;;;;;;;5035349;28;20049;-73
2023/07/11 07:15:52;;;;;;;9.93;3.60;;;;;;;;;;5055957;28;20128;-74
2023/07/11 07:18:18;;;;;;;10.27;3.55;;;;;;;;;;5059235;28;20073;-73
2023/07/11 07:20:45;;;;;;;8.98;4.38;;;;;;;;;;5060578;28;20041;-73
2023/07/11 07:23:11;;;;;;;10.10;3.20;;;;;;;;;;5064753;28;20109;-73
2023/07/11 07:25:38;;;;;;;8.60;3.28;;;;;;;;;;5065005;28;20060;-74
2023/07/11 07:28:04;;;;;;;8.25;3.00;;;;;;;;;;5062880;28;20113;-74
2023/07/11 07:30:30;;;;;;;9.77;3.70;;;;;;;;;;5045390;28;20041;-73
2023/07/11 07:32:57;;;;;;;8.95;3.78;;;;;;;;;;5063822;28;20041;-74
2023/07/11 07:35:23;;;;;;;9.27;3.65;;;;;;;;;;5052700;28;20168;-74
2023/07/11 07:37:52;;;;;;;8.20;3.63;;;;;;;;;;5055885;28;20049;-74
2023/07/11 07:40:19;;;;;;;9.00;3.40;;;;;;;;;;5053232;28;20170;-74
2023/07/11 07:42:45;;;;;;;8.98;3.13;;;;;;;;;;5062793;28;20053;-73
2023/07/11 07:45:11;;;;;;;8.27;3.22;;;;;;;;;;5062928;28;20065;-74
2023/07/11 07:47:37;;;;;;;10.75;3.55;;;;;;;;;;5064440;28;20060;-74
2023/07/11 07:50:03;;;;;;;8.88;3.28;;;;;;;;;;5063093;28;20094;-73
2023/07/11 07:52:29;;;;;;;7.70;3.00;;;;;;;;;;5045579;28;20045;-74
2023/07/11 07:54:55;;;;;;;8.93;3.00;;;;;;;;;;5063784;28;20048;-74
2023/07/11 07:57:21;;;;;;;9.85;3.15;;;;;;;;;;5063270;28;20083;-73
2023/07/11 07:59:47;;;;;;;9.02;2.80;;;;;;;;;;5062548;28;20045;-74
2023/07/11 08:02:13;;;;;;;8.27;3.08;;;;;;;;;;5063817;28;20052;-74
2023/07/11 08:04:39;;;;;;;8.23;3.22;;;;;;;;;;5063007;28;20132;-75
2023/07/11 08:07:06;;;;;;;11.60;3.13;;;;;;;;;;5059111;28;20037;-74
2023/07/11 08:09:32;;;;;;;6.63;2.70;;;;;;;;;;5057216;28;20052;-74
2023/07/11 08:12:05;;;;;;;7.13;2.72;;;;;;;;;;5058368;28;20045;-75
2023/07/11 08:14:34;;;;;;;9.20;2.80;;;;;;;;;;5060369;28;20072;-73
2023/07/11 08:17:00;;;;;;;6.85;2.78;;;;;;;;;;5060893;28;20124;-74
2023/07/11 08:19:26;;;;;;;7.35;2.45;;;;;;;;;;5062747;28;20411;-72
2023/07/11 08:21:53;;;;;;;7.15;2.80;;;;;;;;;;5033112;28;20510;-74
2023/07/11 08:24:19;;;;;;;6.55;2.35;;;;;;;;;;5049178;28;20061;-73
2023/07/11 08:26:45;;;;;;;9.23;2.72;;;;;;;;;;5058076;28;20111;-73
2023/07/11 08:29:13;;;;;;;8.75;2.80;;;;;;;;;;5044945;28;20056;-75
2023/07/11 08:31:39;;;;;;;9.05;2.83;;;;;;;;;;5061560;28;20053;-75
2023/07/11 08:34:05;;;;;;;5.40;2.40;;;;;;;;;;5043250;28;20488;-73
2023/07/11 08:36:31;;;;;;;8.15;2.42;;;;;;;;;;5043571;28;20045;-74
2023/07/11 08:38:57;;;;;;;6.82;2.30;;;;;;;;;;5050167;28;20380;-74
2023/07/11 08:41:42;;;;;;;6.40;1.88;;;;;;;;;;5059897;28;20045;-73
2023/07/11 08:44:17;;;;;;;7.07;2.25;;;;;;;;;;5053983;28;20080;-74
2023/07/11 08:46:48;;;;;;;8.10;2.55;;;;;;;;;;5042722;28;20046;-73
2023/07/11 08:49:18;;;;;;;8.85;2.33;;;;;;;;;;5042874;28;20144;-73
2023/07/11 08:51:50;;;;;;;9.50;2.35;;;;;;;;;;5042635;28;20048;-74
2023/07/11 08:54:28;;;;;;;8.98;2.33;;;;;;;;;;5041076;28;20071;-74
2023/07/11 08:56:55;;;;;;;10.68;2.58;;;;;;;;;;5039969;28;20096;-75
2023/07/11 08:59:27;;;;;;;6.70;2.08;;;;;;;;;;5060323;28;20112;-74
2023/07/11 09:02:11;;;;;;;8.70;2.10;;;;;;;;;;5046492;28;20102;-75
2023/07/11 09:04:41;;;;;;;9.43;2.38;;;;;;;;;;5057532;28;20406;-73
2023/07/11 09:07:15;;;;;;;11.52;2.58;;;;;;;;;;5058741;28;20049;-74
2023/07/11 09:09:41;;;;;;;7.32;2.40;;;;;;;;;;5058347;28;20059;-73
2023/07/11 09:12:07;;;;;;;7.03;2.13;;;;;;;;;;5058190;28;20047;-74
2023/07/11 09:14:36;;;;;;;7.38;2.28;;;;;;;;;;5058180;28;20063;-74
2023/07/11 09:17:21;;;;;;;10.52;2.95;;;;;;;;;;5058057;28;20045;-74
2023/07/11 09:19:53;;;;;;;9.82;2.20;;;;;;;;;;5058767;28;20063;-74
2023/07/11 09:22:30;;;;;;;10.45;2.38;;;;;;;;;;5058923;28;20044;-73
2023/07/11 09:25:15;;;;;;;10.98;2.25;;;;;;;;;;5058175;28;20057;-74
2023/07/11 09:28:02;;;;;;;7.28;2.20;;;;;;;;;;5049692;28;20064;-74
2023/07/11 09:30:28;;;;;;;6.63;2.30;;;;;;;;;;5038174;28;20059;-73
2023/07/11 09:32:57;;;;;;;8.75;2.47;;;;;;;;;;5056538;28;20045;-73
2023/07/11 09:35:24;;;;;;;8.10;2.30;;;;;;;;;;5057626;28;20558;-74
2023/07/11 09:38:13;;;;;;;8.75;2.40;;;;;;;;;;5057678;28;20126;-74
2023/07/11 09:40:48;;;;;;;8.65;2.50;;;;;;;;;;5057084;28;20037;-74
2023/07/11 09:43:14;;;;;;;7.18;2.30;;;;;;;;;;5019765;28;20492;-74
2023/07/11 09:45:45;;;;;;;7.50;2.50;;;;;;;;;;5037603;28;20095;-71
2023/07/11 09:48:44;;;;;;;9.80;2.67;;;;;;;;;;5057769;28;20059;-74
2023/07/11 09:51:24;;;;;;;7.13;2.35;;;;;;;;;;5024667;28;20052;-74
2023/07/11 09:53:53;;;;;;;8.50;2.50;;;;;;;;;;5057606;28;20120;-74
2023/07/11 09:56:19;;;;;;;8.20;2.40;;;;;;;;;;5058117;28;20423;-74
2023/07/11 09:58:47;;;;;;;8.73;2.55;;;;;;;;;;5058172;28;20053;-74
2023/07/11 10:01:18;;;;;;;8.77;2.63;;;;;;;;;;5057641;28;20413;-74
2023/07/11 10:03:47;;;;;;;8.35;2.53;;;;;;;;;;5057637;28;20083;-73
2023/07/11 10:06:26;;;;;;;7.55;2.17;;;;;;;;;;5057033;28;20051;-75
2023/07/11 10:08:52;;;;;;;7.63;2.70;;;;;;;;;;5057985;28;20052;-76
2023/07/11 10:11:18;;;;;;;7.03;2.30;;;;;;;;;;5058361;28;20067;-75
2023/07/11 10:13:48;;;;;;;7.45;2.47;;;;;;;;;;5058316;28;20049;-75
2023/07/11 10:16:18;;;;;;;7.72;2.08;;;;;;;;;;5058151;28;20037;-74
2023/07/11 10:18:44;;;;;;;7.75;2.45;;;;;;;;;;5058632;28;20109;-75
2023/07/11 10:21:12;;;;;;;7.88;2.70;;;;;;;;;;5057521;28;20048;-74
2023/07/11 10:23:39;;;;;;;8.75;2.95;;;;;;;;;;5058057;28;20411;-74
2023/07/11 10:26:07;;;;;;;7.78;2.40;;;;;;;;;;5057985;28;20081;-73
2023/07/11 10:28:35;;;;;;;5.80;2.10;;;;;;;;;;5058295;28;20048;-73
2023/07/11 10:31:15;;;;;;;9.10;2.50;;;;;;;;;;5057745;28;20053;-74
2023/07/11 10:33:49;;;;;;;11.00;2.80;;;;;;;;;;5033396;28;20487;-74
2023/07/11 10:36:22;;;;;;;8.27;2.30;;;;;;;;;;5039217;28;20295;-73
2023/07/11 10:38:54;;;;;;;7.57;2.53;;;;;;;;;;5058444;28;20045;-73
2023/07/11 10:41:25;;;;;;;5.43;2.10;;;;;;;;;;5058054;28;20045;-73
2023/07/11 10:43:51;;;;;;;8.90;2.50;;;;;;;;;;5057021;28;20556;-74
2023/07/11 10:46:34;;;;;;;6.88;2.03;;;;;;;;;;5057236;28;20049;-74
2023/07/11 10:49:06;;;;;;;9.30;1.90;;;;;;;;;;5058654;28;20405;-74
2023/07/11 10:51:36;;;;;;;6.28;1.85;;;;;;;;;;5060903;28;20049;-74
2023/07/11 10:54:12;;;;;;;7.72;2.42;;;;;;;;;;5043913;28;20048;-75
2023/07/11 10:56:41;;;;;;;10.20;2.22;;;;;;;;;;5062358;28;20041;-75
2023/07/11 10:59:11;;;;;;;8.40;2.20;;;;;;;;;;5043916;28;20056;-74
2023/07/11 11:01:46;;;;;;;6.32;1.80;;;;;;;;;;5061432;28;20101;-75
2023/07/11 11:04:31;;;;;;;5.35;1.70;;;;;;;;;;5060494;28;20399;-75
2023/07/11 11:07:22;;;;;;;9.23;2.08;;;;;;;;;;5059795;28;20080;-74
2023/07/11 11:09:50;;;;;;;7.13;2.00;;;;;;;;;;4998437;28;20070;-74
2023/07/11 11:12:16;;;;;;;12.73;1.90;;;;;;;;;;4999672;28;20113;-74
2023/07/11 11:14:47;;;;;;;7.70;2.13;;;;;;;;;;4999983;28;20058;-74
2023/07/11 11:17:16;;;;;;;7.10;1.98;;;;;;;;;;4981665;28;20058;-74
2023/07/11 11:19:56;;;;;;;9.45;2.20;;;;;;;;;;4998511;28;20074;-74
2023/07/11 11:22:35;;;;;;;6.82;1.90;;;;;;;;;;5000486;28;20518;-75
2023/07/11 11:25:02;;;;;;;7.13;2.45;;;;;;;;;;4999626;28;20060;-74
2023/07/11 11:27:28;;;;;;;9.80;2.20;;;;;;;;;;4967665;28;20105;-75
2023/07/11 11:30:12;;;;;;;8.35;2.28;;;;;;;;;;4999971;28;20090;-75
2023/07/11 11:32:53;;;;;;;10.23;2.55;;;;;;;;;;4998844;28;20038;-75
2023/07/11 11:35:42;;;;;;;7.05;1.90;;;;;;;;;;4999791;28;20059;-74
2023/07/11 11:38:17;;;;;;;5.32;1.75;;;;;;;;;;4999909;28;20046;-75
2023/07/11 11:40:45;;;;;;;9.18;2.33;;;;;;;;;;4984996;28;20112;-76
2023/07/11 11:43:13;;;;;;;6.60;2.08;;;;;;;;;;5001647;28;20109;-74
2023/07/11 11:45:40;;;;;;;7.13;2.10;;;;;;;;;;5001670;28;20106;-74
2023/07/11 11:48:07;;;;;;;6.63;2.25;;;;;;;;;;5046157;28;20046;-75
2023/07/11 11:50:35;;;;;;;5.45;2.03;;;;;;;;;;5040630;28;20072;-74
2023/07/11 11:53:22;;;;;;;7.38;2.00;;;;;;;;;;5040353;28;20408;-74
2023/07/11 11:55:56;;;;;;;7.00;1.85;;;;;;;;;;5022771;28;20042;-74
2023/07/11 11:58:24;;;;;;;6.90;2.28;;;;;;;;;;5040610;28;20107;-74
2023/07/11 12:00:54;;;;;;;6.38;2.15;;;;;;;;;;5039680;28;20155;-74
2023/07/11 12:03:33;;;;;;;6.88;1.90;;;;;;;;;;5058565;28;20097;-74
2023/07/11 12:06:00;;;;;;;5.15;1.88;;;;;;;;;;5059754;28;20451;-75
2023/07/11 12:08:32;;;;;;;5.10;1.90;;;;;;;;;;5059973;28;20048;-75
2023/07/11 12:11:07;;;;;;;6.97;1.83;;;;;;;;;;5059237;28;20128;-75
2023/07/11 12:13:35;;;;;;;7.68;2.10;;;;;;;;;;5058024;28;20052;-75
2023/07/11 12:16:02;;;;;;;7.72;1.83;;;;;;;;;;5060054;28;20049;-73
2023/07/11 12:18:33;;;;;;;6.95;1.85;;;;;;;;;;5042190;28;20490;-75
2023/07/11 12:21:06;;;;;;;8.52;1.90;;;;;;;;;;5060401;28;20411;-75
2023/07/11 12:23:33;;;;;;;5.95;1.90;;;;;;;;;;5060201;28;20041;-74
2023/07/11 12:26:09;;;;;;;5.30;1.90;;;;;;;;;;5059730;28;20084;-74
2023/07/11 12:28:35;;;;;;;8.73;2.03;;;;;;;;;;5060255;28;20045;-74
2023/07/11 12:31:14;;;;;;;5.78;1.70;;;;;;;;;;5059660;28;20041;-74
2023/07/11 12:33:40;;;;;;;11.10;1.95;;;;;;;;;;5058594;28;20040;-74
2023/07/11 12:36:06;;;;;;;6.55;2.15;;;;;;;;;;5041714;28;20111;-74
2023/07/11 12:38:39;;;;;;;6.65;2.00;;;;;;;;;;5058491;28;20079;-75
2023/07/11 12:41:06;;;;;;;6.22;2.20;;;;;;;;;;5058631;28;20055;-74
2023/07/11 12:43:33;;;;;;;6.10;1.90;;;;;;;;;;5025657;28;20049;-73
2023/07/11 12:46:06;;;;;;;7.80;1.95;;;;;;;;;;5060270;28;20095;-74
2023/07/11 12:48:33;;;;;;;8.38;2.13;;;;;;;;;;5060042;28;20053;-74
2023/07/11 12:51:04;;;;;;;6.85;2.10;;;;;;;;;;5059386;28;20041;-74
2023/07/11 12:53:34;;;;;;;6.60;2.03;;;;;;;;;;5039571;28;20052;-74
2023/07/11 12:56:00;;;;;;;7.72;1.73;;;;;;;;;;5052600;28;20049;-73
2023/07/11 12:58:28;;;;;;;6.38;1.90;;;;;;;;;;5053024;28;20045;-73
2023/07/11 13:00:55;;;;;;;5.65;2.20;;;;;;;;;;5053026;28;20044;-73
2023/07/11 13:03:34;;;;;;;6.78;1.80;;;;;;;;;;5050813;28;20128;-74
2023/07/11 13:06:02;;;;;;;8.03;2.03;;;;;;;;;;5048659;28;20418;-74
2023/07/11 13:08:29;;;;;;;5.32;1.83;;;;;;;;;;5055726;28;20299;-74
2023/07/11 13:10:58;;;;;;;6.25;2.08;;;;;;;;;;5054794;28;20045;-74
2023/07/11 13:13:25;;;;;;;6.55;2.00;;;;;;;;;;5057151;28;20044;-73
2023/07/11 13:15:51;;;;;;;7.40;2.28;;;;;;;;;;5057504;28;20044;-77
2023/07/11 13:18:32;;;;;;;6.25;1.92;;;;;;;;;;5055795;28;20047;-74
2023/07/11 13:20:59;;;;;;;10.10;2.00;;;;;;;;;;5055438;28;20477;-74
2023/07/11 13:23:26;;;;;;;10.38;2.30;;;;;;;;;;5040047;28;20088;-74
2023/07/11 13:25:53;;;;;;;6.78;2.45;;;;;;;;;;5039185;28;20056;-74
2023/07/11 13:28:22;;;;;;;6.50;2.35;;;;;;;;;;5057335;28;20419;-75
2023/07/11 13:30:55;;;;;;;5.20;1.73;;;;;;;;;;5058500;28;20170;-75
2023/07/11 13:33:21;;;;;;;5.30;2.00;;;;;;;;;;5056428;28;20052;-75
2023/07/11 13:35:52;;;;;;;6.68;2.03;;;;;;;;;;5050860;28;20049;-75
2023/07/11 13:38:18;;;;;;;6.93;2.00;;;;;;;;;;5054161;28;20049;-75
2023/07/11 13:40:53;;;;;;;5.97;1.97;;;;;;;;;;5053412;28;20797;-74
2023/07/11 13:43:21;;;;;;;7.07;1.88;;;;;;;;;;5048124;28;20133;-75
2023/07/11 13:45:47;;;;;;;6.68;2.10;;;;;;;;;;5049877;28;20082;-74
2023/07/11 13:48:20;;;;;;;7.88;2.05;;;;;;;;;;5033260;28;20056;-75
2023/07/11 13:50:46;;;;;;;6.55;2.08;;;;;;;;;;5050834;28;20037;-74
2023/07/11 13:53:14;;;;;;;4.93;1.75;;;;;;;;;;5052922;28;20131;-75
2023/07/11 13:55:45;;;;;;;7.35;2.50;;;;;;;;;;5054457;28;20083;-74
2023/07/11 13:58:11;;;;;;;6.55;2.08;;;;;;;;;;5055045;28;20045;-75
2023/07/11 14:00:38;;;;;;;7.93;2.33;;;;;;;;;;5041024;28;20518;-74
2023/07/11 14:03:06;;;;;;;5.22;2.03;;;;;;;;;;5054115;28;20064;-75
2023/07/11 14:05:32;;;;;;;6.90;2.10;;;;;;;;;;5039070;28;20041;-74
2023/07/11 14:08:00;;;;;;;5.40;2.13;;;;;;;;;;5053834;28;20045;-73
2023/07/11 14:10:27;;;;;;;6.75;2.05;;;;;;;;;;5032015;28;20072;-74
2023/07/11 14:12:54;;;;;;;5.65;1.98;;;;;;;;;;5046614;28;20068;-75
2023/07/11 14:15:21;;;;;;;7.97;2.47;;;;;;;;;;5032932;28;20052;-75
2023/07/11 14:17:48;;;;;;;6.15;1.88;;;;;;;;;;5049419;28;20128;-75
2023/07/11 14:20:18;;;;;;;6.82;2.20;;;;;;;;;;5051119;28;20136;-75
2023/07/11 14:22:45;;;;;;;5.68;1.60;;;;;;;;;;5049082;28;20048;-74
2023/07/11 14:25:15;;;;;;;5.97;2.20;;;;;;;;;;5054885;28;20052;-76
2023/07/11 14:27:42;;;;;;;5.45;1.92;;;;;;;;;;5048467;28;20049;-75
2023/07/11 14:30:10;;;;;;;6.15;1.70;;;;;;;;;;5034404;28;20108;-75
2023/07/11 14:32:36;;;;;;;6.35;1.80;;;;;;;;;;5057084;28;20041;-76
2023/07/11 14:35:02;;;;;;;5.68;2.00;;;;;;;;;;5055031;28;20040;-76
2023/07/11 14:37:29;;;;;;;6.72;2.13;;;;;;;;;;5054642;28;20376;-76
2023/07/11 14:39:56;;;;;;;9.73;2.40;;;;;;;;;;5054434;28;20116;-75
2023/07/11 14:42:30;;;;;;;6.72;2.15;;;;;;;;;;5033726;28;20112;-75
2023/07/11 14:44:56;;;;;;;5.32;1.83;;;;;;;;;;5036360;28;20045;-75
2023/07/11 14:47:23;;;;;;;7.18;1.95;;;;;;;;;;5053453;28;20044;-75